createdAt,value
2019-06-10T00:00:21.948Z,1.40
2019-06-10T00:02:50.825Z,1.77
2019-06-10T00:05:21.627Z,1.57
2019-06-10T00:07:51.613Z,1.67
2019-06-10T00:10:21.495Z,1.50
2019-06-10T00:12:51.746Z,2.43
2019-06-10T00:15:21.417Z,1.93
2019-06-10T00:17:59.306Z,1.10
2019-06-10T00:20:21.600Z,1.43
2019-06-10T00:22:51.485Z,2.73
2019-06-10T00:25:21.092Z,2.27
2019-06-10T00:27:51.187Z,1.40
2019-06-10T00:30:20.807Z,1.40
2019-06-10T00:32:51.554Z,1.00
2019-06-10T00:35:21.096Z,1.80
2019-06-10T00:37:51.215Z,1.20
2019-06-10T00:40:21.445Z,2.17
2019-06-10T00:42:50.854Z,1.87
2019-06-10T00:45:21.671Z,1.00
2019-06-10T00:47:52.068Z,1.10
2019-06-10T00:50:21.714Z,1.53
2019-06-10T00:52:51.689Z,1.40
2019-06-10T00:55:21.193Z,2.93
2019-06-10T00:57:50.970Z,2.00
2019-06-10T01:00:25.728Z,1.73
2019-06-10T01:02:51.791Z,1.20
2019-06-10T01:05:21.132Z,1.03
2019-06-10T01:07:50.861Z,1.03
2019-06-10T01:10:21.118Z,2.10
2019-06-10T01:12:51.342Z,1.40
2019-06-10T01:15:21.863Z,1.33
2019-06-10T01:17:51.199Z,3.00
2019-06-10T01:20:21.056Z,1.77
2019-06-10T01:22:51.628Z,2.17
2019-06-10T01:25:21.646Z,1.87
2019-06-10T01:27:51.561Z,1.17
2019-06-10T01:30:26.418Z,2.50
2019-06-10T01:32:51.494Z,1.40
2019-06-10T01:35:21.095Z,1.33
2019-06-10T01:37:51.952Z,3.50
2019-06-10T01:40:20.918Z,1.83
2019-06-10T01:42:50.640Z,1.33
2019-06-10T01:45:21.268Z,1.47
2019-06-10T01:47:51.136Z,1.10
2019-06-10T01:50:21.793Z,2.40
2019-06-10T01:52:51.554Z,1.70
2019-06-10T01:55:21.864Z,1.97
2019-06-10T01:57:51.872Z,1.97
2019-06-10T02:00:25.989Z,3.23
2019-06-10T02:02:53.250Z,1.90
2019-06-10T02:05:22.913Z,1.37
2019-06-10T02:07:52.257Z,1.00
2019-06-10T02:10:23.056Z,1.80
2019-06-10T02:12:51.326Z,1.30
2019-06-10T02:15:22.470Z,1.77
2019-06-10T02:17:51.003Z,1.37
2019-06-10T02:20:23.883Z,1.50
2019-06-10T02:22:51.658Z,2.73
2019-06-10T02:25:21.678Z,2.43
2019-06-10T02:27:51.243Z,1.33
2019-06-10T02:30:38.633Z,1.20
2019-06-10T02:32:52.444Z,1.30
2019-06-10T02:35:30.496Z,1.20
2019-06-10T02:37:53.712Z,2.57
2019-06-10T02:40:28.858Z,1.30
2019-06-10T02:42:54.076Z,1.17
2019-06-10T02:45:32.026Z,1.27
2019-06-10T02:47:53.853Z,1.20
2019-06-10T02:50:43.867Z,1.17
2019-06-10T02:53:13.495Z,1.07
2019-06-10T02:55:43.435Z,1.63
2019-06-10T02:58:13.797Z,1.00
2019-06-10T03:00:48.111Z,1.20
2019-06-10T03:03:14.094Z,1.63
2019-06-10T03:05:46.752Z,1.57
2019-06-10T03:08:13.885Z,1.10
2019-06-10T03:10:44.266Z,2.90
2019-06-10T03:13:13.120Z,1.87
2019-06-10T03:15:45.068Z,2.40
2019-06-10T03:18:13.742Z,2.33
2019-06-10T03:20:42.651Z,0.80
2019-06-10T03:23:12.102Z,1.53
2019-06-10T03:25:42.255Z,1.03
2019-06-10T03:28:12.085Z,0.90
2019-06-10T03:30:53.339Z,1.60
2019-06-10T03:33:13.766Z,1.10
2019-06-10T03:35:42.430Z,3.93
2019-06-10T03:38:12.353Z,1.57
2019-06-10T03:40:43.312Z,1.40
2019-06-10T03:43:11.954Z,1.30
2019-06-10T03:45:42.572Z,2.73
2019-06-10T03:48:13.108Z,1.43
2019-06-10T03:50:43.154Z,1.00
2019-06-10T03:53:12.973Z,1.27
2019-06-10T03:55:42.485Z,2.17
2019-06-10T03:58:12.584Z,1.43
2019-06-10T04:00:43.007Z,1.60
2019-06-10T04:03:12.161Z,1.43
2019-06-10T04:05:42.325Z,2.03
2019-06-10T04:08:12.553Z,1.10
2019-06-10T04:10:42.970Z,0.83
2019-06-10T04:13:13.205Z,1.27
2019-06-10T04:15:43.055Z,2.27
2019-06-10T04:18:12.818Z,1.13
2019-06-10T04:20:42.976Z,1.27
2019-06-10T04:23:12.254Z,2.20
2019-06-10T04:25:42.931Z,1.30
2019-06-10T04:28:12.503Z,2.10
2019-06-10T04:30:43.177Z,1.30
2019-06-10T04:33:12.682Z,1.20
2019-06-10T04:35:42.765Z,1.00
2019-06-10T04:38:13.085Z,1.87
2019-06-10T04:40:43.073Z,1.33
2019-06-10T04:43:12.557Z,1.10
2019-06-10T04:45:42.965Z,1.53
2019-06-10T04:48:12.425Z,1.10
2019-06-10T04:50:46.006Z,1.50
2019-06-10T04:53:12.890Z,1.03
2019-06-10T04:55:43.097Z,1.30
2019-06-10T04:58:12.989Z,2.00
2019-06-10T05:00:42.957Z,0.90
2019-06-10T05:03:12.408Z,0.93
2019-06-10T05:05:43.023Z,0.87
2019-06-10T05:08:13.128Z,1.07
2019-06-10T05:10:42.410Z,2.07
2019-06-10T05:13:12.007Z,2.00
2019-06-10T05:15:43.379Z,1.70
2019-06-10T05:18:13.109Z,1.33
2019-06-10T05:20:54.206Z,1.67
2019-06-10T05:23:12.662Z,1.27
2019-06-10T05:25:42.762Z,2.47
2019-06-10T05:28:12.282Z,1.20
2019-06-10T05:30:42.655Z,1.30
2019-06-10T05:33:13.470Z,1.13
2019-06-10T05:35:42.686Z,1.30
2019-06-10T05:38:12.987Z,1.93
2019-06-10T05:40:42.781Z,1.80
2019-06-10T05:43:13.074Z,4.53
2019-06-10T05:45:42.478Z,1.17
2019-06-10T05:48:16.235Z,2.03
2019-06-10T05:50:42.778Z,1.07
2019-06-10T05:53:13.147Z,1.30
2019-06-10T05:55:42.860Z,1.30
2019-06-10T05:58:12.923Z,1.20
2019-06-10T06:00:42.900Z,4.10
2019-06-10T06:03:12.153Z,1.70
2019-06-10T06:05:43.242Z,2.53
2019-06-10T06:08:12.605Z,1.40
2019-06-10T06:10:42.371Z,1.67
2019-06-10T06:13:12.754Z,2.93
2019-06-10T06:15:42.405Z,1.27
2019-06-10T06:18:14.039Z,1.20
2019-06-10T06:20:43.606Z,1.30
2019-06-10T06:23:12.428Z,1.13
2019-06-10T06:25:45.365Z,1.20
2019-06-10T06:28:13.602Z,1.53
2019-06-10T06:30:42.530Z,1.53
2019-06-10T06:33:13.582Z,2.43
2019-06-10T06:35:46.087Z,1.10
2019-06-10T06:38:13.012Z,1.03
2019-06-10T06:40:43.454Z,1.83
2019-06-10T06:43:12.497Z,2.57
2019-06-10T06:45:42.630Z,1.50
2019-06-10T06:48:12.304Z,1.40
2019-06-10T06:51:00.318Z,1.53
2019-06-10T06:53:25.821Z,1.17
2019-06-10T06:55:43.282Z,1.23
2019-06-10T06:58:12.635Z,1.57
2019-06-10T07:00:59.847Z,2.07
2019-06-10T07:03:12.542Z,2.43
2019-06-10T07:05:43.316Z,1.10
2019-06-10T07:08:13.200Z,1.40
2019-06-10T07:10:43.575Z,0.90
2019-06-10T07:13:13.519Z,2.23
2019-06-10T07:15:46.902Z,1.33
2019-06-10T07:18:13.601Z,1.90
2019-06-10T07:20:45.605Z,2.37
2019-06-10T07:23:13.012Z,1.60
2019-06-10T07:25:46.588Z,1.63
2019-06-10T07:28:12.627Z,3.07
2019-06-10T07:30:48.152Z,4.90
2019-06-10T07:33:12.203Z,8.47
2019-06-10T07:35:43.681Z,2.80
2019-06-10T07:38:12.247Z,1.93
2019-06-10T07:40:45.275Z,2.77
2019-06-10T07:43:12.862Z,2.20
2019-06-10T07:45:47.391Z,5.13
2019-06-10T07:48:12.358Z,1.70
2019-06-10T07:50:44.142Z,2.33
2019-06-10T07:53:12.776Z,4.23
2019-06-10T07:55:44.753Z,7.10
2019-06-10T07:58:12.943Z,3.90
2019-06-10T08:00:46.531Z,1.07
2019-06-10T08:03:12.887Z,1.87
2019-06-10T08:05:44.389Z,5.07
2019-06-10T08:08:13.085Z,18.60
2019-06-10T08:10:44.820Z,8.67
2019-06-10T08:13:12.664Z,6.77
2019-06-10T08:15:44.259Z,10.10
2019-06-10T08:18:13.102Z,9.80
2019-06-10T08:20:45.428Z,8.37
2019-06-10T08:23:15.795Z,10.57
2019-06-10T08:25:52.928Z,7.67
2019-06-10T08:28:16.131Z,8.50
2019-06-10T08:30:46.140Z,7.33
2019-06-10T08:33:14.866Z,7.40
2019-06-10T08:35:53.512Z,8.57
2019-06-10T08:38:14.226Z,8.73
2019-06-10T08:40:44.980Z,8.07
2019-06-10T08:43:13.407Z,12.53
2019-06-10T08:45:44.163Z,6.23
2019-06-10T08:48:13.328Z,7.37
2019-06-10T08:50:46.577Z,8.43
2019-06-10T08:53:15.567Z,9.17
2019-06-10T08:55:46.099Z,6.77
2019-06-10T08:58:13.660Z,7.60
2019-06-10T09:00:45.095Z,5.33
2019-06-10T09:03:12.758Z,6.03
2019-06-10T09:05:46.061Z,6.57
2019-06-10T09:08:12.999Z,5.70
2019-06-10T09:10:45.707Z,6.43
2019-06-10T09:13:13.421Z,6.57
2019-06-10T09:15:45.038Z,6.57
2019-06-10T09:18:14.490Z,6.77
2019-06-10T09:20:47.506Z,5.97
2019-06-10T09:23:21.842Z,5.43
2019-06-10T09:25:47.654Z,5.47
2019-06-10T09:28:14.648Z,6.50
2019-06-10T09:30:50.007Z,4.80
2019-06-10T09:33:13.659Z,4.37
2019-06-10T09:35:47.314Z,5.47
2019-06-10T09:38:14.205Z,6.40
2019-06-10T09:41:00.753Z,6.53
2019-06-10T09:43:24.538Z,6.00
2019-06-10T09:45:56.287Z,6.83
2019-06-10T09:48:23.875Z,3.47
2019-06-10T09:50:57.876Z,4.50
2019-06-10T09:53:33.461Z,3.47
2019-06-10T09:55:55.591Z,4.30
2019-06-10T09:58:23.878Z,3.43
2019-06-10T10:00:57.758Z,2.53
2019-06-10T10:03:24.405Z,3.40
2019-06-10T10:06:08.118Z,4.17
2019-06-10T10:08:23.906Z,2.10
2019-06-10T10:10:58.471Z,2.70
2019-06-10T10:13:23.260Z,3.27
2019-06-10T10:15:53.891Z,4.30
2019-06-10T10:18:23.567Z,4.87
2019-06-10T10:20:58.752Z,4.33
2019-06-10T10:23:22.924Z,3.63
2019-06-10T10:25:56.386Z,2.90
2019-06-10T10:28:25.012Z,3.27
2019-06-10T10:30:55.848Z,2.50
2019-06-10T10:33:29.529Z,3.30
2019-06-10T10:35:54.728Z,2.30
2019-06-10T10:38:23.514Z,4.10
2019-06-10T10:40:58.105Z,3.53
2019-06-10T10:43:32.433Z,3.43
2019-06-10T10:45:59.902Z,2.50
2019-06-10T10:48:23.928Z,2.63
2019-06-10T10:50:55.846Z,2.30
2019-06-10T10:53:23.819Z,1.80
2019-06-10T10:55:53.563Z,2.33
2019-06-10T10:58:23.140Z,4.50
2019-06-10T11:00:54.948Z,2.77
2019-06-10T11:03:22.903Z,2.50
2019-06-10T11:06:00.507Z,3.47
2019-06-10T11:08:23.149Z,1.90
2019-06-10T11:10:55.458Z,2.03
2019-06-10T11:13:23.972Z,3.50
2019-06-10T11:15:55.359Z,1.70
2019-06-10T11:18:23.228Z,2.20
2019-06-10T11:20:51.891Z,2.33
2019-06-10T11:23:22.678Z,3.07
2019-06-10T11:25:54.827Z,2.27
2019-06-10T11:28:22.788Z,2.20
2019-06-10T11:30:56.374Z,3.67
2019-06-10T11:33:22.906Z,2.17
2019-06-10T11:35:55.126Z,2.00
2019-06-10T11:38:23.521Z,2.60
2019-06-10T11:40:57.706Z,1.70
2019-06-10T11:43:23.400Z,1.60
2019-06-10T11:45:57.577Z,1.67
2019-06-10T11:48:23.919Z,2.90
2019-06-10T11:50:56.515Z,2.23
2019-06-10T11:53:23.164Z,3.40
2019-06-10T11:55:51.851Z,1.60
2019-06-10T11:58:22.434Z,2.00
2019-06-10T12:00:54.311Z,2.00
2019-06-10T12:03:23.026Z,3.10
2019-06-10T12:05:55.741Z,1.97
2019-06-10T12:08:23.700Z,2.07
2019-06-10T12:10:57.272Z,3.67
2019-06-10T12:13:22.790Z,2.17
2019-06-10T12:16:34.947Z,1.90
2019-06-10T12:18:22.954Z,2.70
2019-06-10T12:20:55.943Z,1.83
2019-06-10T12:23:22.698Z,2.30
2019-06-10T12:25:54.455Z,1.77
2019-06-10T12:28:22.089Z,1.60
2019-06-10T12:30:55.617Z,1.97
2019-06-10T12:33:25.256Z,3.17
2019-06-10T12:35:57.665Z,2.03
2019-06-10T12:38:22.903Z,1.93
2019-06-10T12:40:55.999Z,1.83
2019-06-10T12:43:23.152Z,2.37
2019-06-10T12:45:54.278Z,2.63
2019-06-10T12:48:22.780Z,1.80
2019-06-10T12:50:53.921Z,2.10
2019-06-10T12:53:22.840Z,3.00
2019-06-10T12:55:53.564Z,2.20
2019-06-10T12:58:22.726Z,1.60
2019-06-10T13:00:53.224Z,2.60
2019-06-10T13:03:23.801Z,1.60
2019-06-10T13:05:53.351Z,2.13
2019-06-10T13:08:23.949Z,3.20
2019-06-10T13:10:53.517Z,2.10
2019-06-10T13:13:22.965Z,2.07
2019-06-10T13:15:53.184Z,1.90
2019-06-10T13:18:23.852Z,2.17
2019-06-10T13:20:53.770Z,2.23
2019-06-10T13:23:30.790Z,2.10
2019-06-10T13:25:58.807Z,2.53
2019-06-10T13:28:24.656Z,2.20
2019-06-10T13:30:55.374Z,2.60
2019-06-10T13:33:24.558Z,2.10
2019-06-10T13:35:53.868Z,2.33
2019-06-10T13:38:25.646Z,1.90
2019-06-10T13:40:53.405Z,1.70
2019-06-10T13:43:23.273Z,2.43
2019-06-10T13:45:53.320Z,1.70
2019-06-10T13:48:23.314Z,2.03
2019-06-10T13:50:53.108Z,2.70
2019-06-10T13:53:21.850Z,1.97
2019-06-10T13:55:55.148Z,2.20
2019-06-10T13:58:23.001Z,2.03
2019-06-10T14:00:53.604Z,3.17
2019-06-10T14:03:22.912Z,1.80
2019-06-10T14:05:57.786Z,2.30
2019-06-10T14:08:23.262Z,2.10
2019-06-10T14:10:54.009Z,2.13
2019-06-10T14:13:23.575Z,2.00
2019-06-10T14:15:53.333Z,3.47
2019-06-10T14:18:23.316Z,3.07
2019-06-10T14:20:53.346Z,2.40
2019-06-10T14:23:22.437Z,2.20
2019-06-10T14:25:52.619Z,3.93
2019-06-10T14:28:38.731Z,2.13
2019-06-10T14:30:53.818Z,1.83
2019-06-10T14:33:23.268Z,3.17
2019-06-10T14:35:53.371Z,2.97
2019-06-10T14:38:22.438Z,2.03
2019-06-10T14:40:52.607Z,2.20
2019-06-10T14:43:23.349Z,2.50
2019-06-10T14:45:53.458Z,2.17
2019-06-10T14:48:23.275Z,2.23
2019-06-10T14:50:52.785Z,2.30
2019-06-10T14:53:22.970Z,2.37
2019-06-10T14:55:53.282Z,2.67
2019-06-10T14:58:23.045Z,2.43
2019-06-10T15:00:54.133Z,2.80
2019-06-10T15:03:23.140Z,2.33
2019-06-10T15:05:52.860Z,2.50
2019-06-10T15:08:23.102Z,2.30
2019-06-10T15:10:52.933Z,3.13
2019-06-10T15:13:23.519Z,2.27
2019-06-10T15:15:53.347Z,2.10
2019-06-10T15:18:23.914Z,3.10
2019-06-10T15:20:53.572Z,2.20
2019-06-10T15:23:23.551Z,2.10
2019-06-10T15:25:55.980Z,2.37
2019-06-10T15:28:23.620Z,3.10
2019-06-10T15:30:53.271Z,4.40
2019-06-10T15:33:23.494Z,11.83
2019-06-10T15:35:53.304Z,3.43
2019-06-10T15:38:23.414Z,2.30
2019-06-10T15:40:53.205Z,2.30
2019-06-10T15:43:23.650Z,2.60
2019-06-10T15:45:53.149Z,2.43
2019-06-10T15:48:25.246Z,2.37
2019-06-10T15:50:53.070Z,2.80
2019-06-10T15:53:28.100Z,2.50
2019-06-10T15:56:38.722Z,4.27
2019-06-10T15:58:57.556Z,3.63
2019-06-10T16:01:27.440Z,2.60
2019-06-10T16:03:56.644Z,2.90
2019-06-10T16:06:25.303Z,5.40
2019-06-10T16:08:54.010Z,2.50
2019-06-10T16:11:26.464Z,2.20
2019-06-10T16:13:53.427Z,3.73
2019-06-10T16:16:23.102Z,3.47
2019-06-10T16:18:52.820Z,2.37
2019-06-10T16:21:22.068Z,2.30
2019-06-10T16:23:53.164Z,3.07
2019-06-10T16:26:25.236Z,2.33
2019-06-10T16:28:52.218Z,2.87
2019-06-10T16:31:26.648Z,3.93
2019-06-10T16:33:52.735Z,2.60
2019-06-10T16:36:25.878Z,3.10
2019-06-10T16:38:52.950Z,4.13
2019-06-10T16:41:24.768Z,6.30
2019-06-10T16:43:52.308Z,2.90
2019-06-10T16:46:22.346Z,11.73
2019-06-10T16:48:52.771Z,4.53
2019-06-10T16:51:21.707Z,3.43
2019-06-10T16:53:52.825Z,2.87
2019-06-10T16:56:24.048Z,7.90
2019-06-10T16:58:52.299Z,5.03
2019-06-10T17:01:25.017Z,4.20
2019-06-10T17:03:52.522Z,4.70
2019-06-10T17:06:23.633Z,16.40
2019-06-10T17:08:52.370Z,5.17
2019-06-10T17:11:23.734Z,8.93
2019-06-10T17:13:52.680Z,12.50
2019-06-10T17:16:23.250Z,9.50
2019-06-10T17:18:52.740Z,6.43
2019-06-10T17:21:24.705Z,10.53
2019-06-10T17:23:52.527Z,12.97
2019-06-10T17:26:27.224Z,11.03
2019-06-10T17:28:52.165Z,9.27
2019-06-10T17:31:25.749Z,9.97
2019-06-10T17:33:53.176Z,8.20
2019-06-10T17:36:25.723Z,6.43
2019-06-10T17:38:52.445Z,6.93
2019-06-10T17:41:24.074Z,6.80
2019-06-10T17:43:52.082Z,5.73
2019-06-10T17:46:24.084Z,9.27
2019-06-10T17:48:52.199Z,6.00
2019-06-10T17:51:22.950Z,7.07
2019-06-10T17:53:53.106Z,9.47
2019-06-10T17:56:23.133Z,8.73
2019-06-10T17:58:57.689Z,4.27
2019-06-10T18:01:23.870Z,7.43
2019-06-10T18:03:53.069Z,9.93
2019-06-10T18:06:23.969Z,5.37
2019-06-10T18:08:52.775Z,8.77
2019-06-10T18:11:24.336Z,7.53
2019-06-10T18:13:51.812Z,4.23
2019-06-10T18:16:22.826Z,4.30
2019-06-10T18:18:52.441Z,5.63
2019-06-10T18:21:22.412Z,9.03
2019-06-10T18:23:52.893Z,10.57
2019-06-10T18:26:23.106Z,4.20
2019-06-10T18:29:04.556Z,6.97
2019-06-10T18:31:23.528Z,6.07
2019-06-10T18:33:53.248Z,5.00
2019-06-10T18:36:24.323Z,6.40
2019-06-10T18:38:52.748Z,9.30
2019-06-10T18:41:22.316Z,7.40
2019-06-10T18:43:51.794Z,8.27
2019-06-10T18:46:23.039Z,8.03
2019-06-10T18:48:53.498Z,6.33
2019-06-10T18:51:22.942Z,5.47
2019-06-10T18:53:51.664Z,5.70
2019-06-10T18:56:20.331Z,5.47
2019-06-10T18:58:48.993Z,6.33
2019-06-10T19:01:17.635Z,5.80
2019-06-10T19:03:46.324Z,8.40
2019-06-10T19:06:14.976Z,7.07
2019-06-10T19:08:44.463Z,6.17
2019-06-10T19:11:13.532Z,4.43
2019-06-10T19:13:43.578Z,7.23
2019-06-10T19:16:13.108Z,8.97
2019-06-10T19:18:43.181Z,8.90
2019-06-10T19:21:13.027Z,7.00
2019-06-10T19:23:43.923Z,8.00
2019-06-10T19:26:13.406Z,3.53
2019-06-10T19:28:45.092Z,9.40
2019-06-10T19:31:13.375Z,5.10
2019-06-10T19:33:45.128Z,4.47
2019-06-10T19:36:12.783Z,4.50
2019-06-10T19:38:44.073Z,5.47
2019-06-10T19:41:12.125Z,3.80
2019-06-10T19:43:41.642Z,8.03
2019-06-10T19:46:12.837Z,4.30
2019-06-10T19:48:50.881Z,4.77
2019-06-10T19:51:12.264Z,4.73
2019-06-10T19:53:43.799Z,7.00
2019-06-10T19:56:13.036Z,3.57
2019-06-10T19:58:43.448Z,3.77
2019-06-10T20:01:12.560Z,6.20
2019-06-10T20:03:44.913Z,6.07
2019-06-10T20:06:13.032Z,5.23
2019-06-10T20:08:44.137Z,5.67
2019-06-10T20:11:12.643Z,7.43
2019-06-10T20:13:43.635Z,5.13
2019-06-10T20:16:12.094Z,4.47
2019-06-10T20:18:42.642Z,5.40
2019-06-10T20:21:12.887Z,3.50
2019-06-10T20:23:44.576Z,7.60
2019-06-10T20:26:12.298Z,4.23
2019-06-10T20:28:43.336Z,3.77
2019-06-10T20:31:12.736Z,6.87
2019-06-10T20:33:43.169Z,6.30
2019-06-10T20:36:21.214Z,4.23
2019-06-10T20:38:45.522Z,4.80
2019-06-10T20:41:12.798Z,4.67
2019-06-10T20:43:44.303Z,8.73
2019-06-10T20:46:13.068Z,4.47
2019-06-10T20:48:45.176Z,10.10
2019-06-10T20:51:12.981Z,6.87
2019-06-10T20:53:43.210Z,4.70
2019-06-10T20:56:12.454Z,5.10
2019-06-10T20:58:43.497Z,3.60
2019-06-10T21:01:11.860Z,6.80
2019-06-10T21:03:43.282Z,5.97
2019-06-10T21:06:13.043Z,4.07
2019-06-10T21:08:45.142Z,3.90
2019-06-10T21:11:13.018Z,4.93
2019-06-10T21:13:46.015Z,5.50
2019-06-10T21:16:12.629Z,7.43
2019-06-10T21:18:45.307Z,4.40
2019-06-10T21:21:11.813Z,4.63
2019-06-10T21:23:41.221Z,5.83
2019-06-10T21:26:13.011Z,5.60
2019-06-10T21:28:43.665Z,4.67
2019-06-10T21:31:11.695Z,6.00
2019-06-10T21:33:43.395Z,5.33
2019-06-10T21:36:12.407Z,6.97
2019-06-10T21:38:43.879Z,5.37
2019-06-10T21:41:12.345Z,6.37
2019-06-10T21:43:47.758Z,3.90
2019-06-10T21:46:13.168Z,6.67
2019-06-10T21:48:42.940Z,4.70
2019-06-10T21:51:12.570Z,5.20
2019-06-10T21:53:42.371Z,6.00
2019-06-10T21:56:12.801Z,7.27
2019-06-10T21:58:42.400Z,5.27
2019-06-10T22:01:16.309Z,4.33
2019-06-10T22:03:44.471Z,3.33
2019-06-10T22:06:13.135Z,3.77
2019-06-10T22:08:42.450Z,3.53
2019-06-10T22:11:13.844Z,3.43
2019-06-10T22:13:43.981Z,3.87
2019-06-10T22:16:12.804Z,3.77
2019-06-10T22:18:42.137Z,3.17
2019-06-10T22:21:14.509Z,4.33
2019-06-10T22:23:42.333Z,2.80
2019-06-10T22:26:13.054Z,2.53
2019-06-10T22:28:43.280Z,4.00
2019-06-10T22:31:22.420Z,2.97
2019-06-10T22:33:43.130Z,3.53
2019-06-10T22:36:12.926Z,4.10
2019-06-10T22:38:42.092Z,3.10
2019-06-10T22:41:12.286Z,3.43
2019-06-10T22:43:42.669Z,3.40
2019-06-10T22:46:11.482Z,3.43
2019-06-10T22:48:42.457Z,2.70
2019-06-10T22:51:12.282Z,3.37
2019-06-10T22:53:42.481Z,2.90
2019-06-10T22:56:12.316Z,3.97
2019-06-10T22:58:41.385Z,3.40
2019-06-10T23:01:12.328Z,3.40
2019-06-10T23:03:40.428Z,3.57
2019-06-10T23:06:09.083Z,5.00
2019-06-10T23:08:37.728Z,6.47
2019-06-10T23:11:06.416Z,6.83
2019-06-10T23:13:35.059Z,3.93
2019-06-10T23:16:03.726Z,3.80
2019-06-10T23:18:32.385Z,7.23
2019-06-10T23:21:04.076Z,3.30
2019-06-10T23:23:32.571Z,3.33
2019-06-10T23:26:02.976Z,3.40
2019-06-10T23:28:32.719Z,4.07
2019-06-10T23:31:04.934Z,4.63
2019-06-10T23:33:32.505Z,4.73
2019-06-10T23:36:03.768Z,3.67
2019-06-10T23:38:32.944Z,3.73
2019-06-10T23:41:03.703Z,3.60
2019-06-10T23:43:32.976Z,6.90
2019-06-10T23:46:04.324Z,4.67
2019-06-10T23:48:33.036Z,4.03
2019-06-10T23:51:04.525Z,4.37
2019-06-10T23:53:32.953Z,3.83
2019-06-10T23:56:04.724Z,3.70
2019-06-10T23:58:32.913Z,3.90
